sensor_id;sensor_type;location;lat;lon;timestamp;pressure;altitude;pressure_sealevel;temperature;humidity
46836;BME280;32573;51.290;6.926;2023-05-02T00:00:17;100429.66;;;10.76;100.00
46836;BME280;32573;51.290;6.926;2023-05-02T00:02:46;100438.25;;;10.72;100.00
46836;BME280;32573;51.290;6.926;2023-05-02T00:05:15;100440.72;;;10.67;100.00
46836;BME280;32573;51.290;6.926;2023-05-02T00:07:44;100431.88;;;10.64;100.00
46836;BME280;32573;51.290;6.926;2023-05-02T00:10:14;100443.09;;;10.60;100.00
46836;BME280;32573;51.290;6.926;2023-05-02T00:12:42;100443.88;;;10.57;100.00
46836;BME280;32573;51.290;6.926;2023-05-02T00:15:11;100453.41;;;10.55;100.00
46836;BME280;32573;51.290;6.926;2023-05-02T00:17:40;100445.44;;;10.52;100.00
46836;BME280;32573;51.290;6.926;2023-05-02T00:20:11;100457.59;;;10.50;100.00
46836;BME280;32573;51.290;6.926;2023-05-02T00:22:40;100455.69;;;10.46;100.00
46836;BME280;32573;51.290;6.926;2023-05-02T00:25:09;100469.63;;;10.45;100.00
46836;BME280;32573;51.290;6.926;2023-05-02T00:27:42;100466.97;;;10.43;100.00
46836;BME280;32573;51.290;6.926;2023-05-02T00:30:13;100466.13;;;10.44;100.00
46836;BME280;32573;51.290;6.926;2023-05-02T00:32:42;100467.97;;;10.47;100.00
46836;BME280;32573;51.290;6.926;2023-05-02T00:35:12;100465.50;;;10.51;100.00
46836;BME280;32573;51.290;6.926;2023-05-02T00:37:40;100465.66;;;10.56;100.00
46836;BME280;32573;51.290;6.926;2023-05-02T00:40:10;100473.75;;;10.64;100.00
46836;BME280;32573;51.290;6.926;2023-05-02T00:42:38;100470.38;;;10.68;100.00
46836;BME280;32573;51.290;6.926;2023-05-02T00:45:08;100470.59;;;10.74;100.00
46836;BME280;32573;51.290;6.926;2023-05-02T00:47:36;100467.22;;;10.78;100.00
46836;BME280;32573;51.290;6.926;2023-05-02T00:50:07;100475.28;;;10.84;100.00
46836;BME280;32573;51.290;6.926;2023-05-02T00:52:38;100478.94;;;10.89;100.00
46836;BME280;32573;51.290;6.926;2023-05-02T00:55:07;100486.06;;;10.93;100.00
46836;BME280;32573;51.290;6.926;2023-05-02T00:57:36;100474.78;;;10.96;100.00
46836;BME280;32573;51.290;6.926;2023-05-02T01:00:06;100479.25;;;10.98;100.00
46836;BME280;32573;51.290;6.926;2023-05-02T01:02:42;100468.78;;;11.00;100.00
46836;BME280;32573;51.290;6.926;2023-05-02T01:05:17;100478.44;;;11.01;100.00
46836;BME280;32573;51.290;6.926;2023-05-02T01:08:04;100477.53;;;11.00;100.00
46836;BME280;32573;51.290;6.926;2023-05-02T01:10:47;100469.66;;;11.00;100.00
46836;BME280;32573;51.290;6.926;2023-05-02T01:13:20;100480.22;;;11.02;100.00
46836;BME280;32573;51.290;6.926;2023-05-02T01:15:50;100481.09;;;11.02;100.00
46836;BME280;32573;51.290;6.926;2023-05-02T01:18:21;100480.28;;;11.04;100.00
46836;BME280;32573;51.290;6.926;2023-05-02T01:20:53;100486.38;;;11.04;100.00
46836;BME280;32573;51.290;6.926;2023-05-02T01:23:31;100488.94;;;11.02;100.00
46836;BME280;32573;51.290;6.926;2023-05-02T01:26:14;100496.81;;;11.02;100.00
46836;BME280;32573;51.290;6.926;2023-05-02T01:29:02;100504.63;;;11.01;100.00
46836;BME280;32573;51.290;6.926;2023-05-02T01:31:35;100493.25;;;11.00;100.00
46836;BME280;32573;51.290;6.926;2023-05-02T01:34:08;100502.03;;;11.01;100.00
46836;BME280;32573;51.290;6.926;2023-05-02T01:36:41;100507.28;;;11.02;100.00
46836;BME280;32573;51.290;6.926;2023-05-02T01:39:14;100503.72;;;11.00;100.00
46836;BME280;32573;51.290;6.926;2023-05-02T01:41:48;100507.19;;;10.99;100.00
46836;BME280;32573;51.290;6.926;2023-05-02T01:44:19;100509.81;;;10.99;100.00
46836;BME280;32573;51.290;6.926;2023-05-02T01:46:50;100514.16;;;10.99;100.00
46836;BME280;32573;51.290;6.926;2023-05-02T01:49:22;100515.06;;;10.99;100.00
46836;BME280;32573;51.290;6.926;2023-05-02T01:51:52;100522.91;;;10.99;100.00
46836;BME280;32573;51.290;6.926;2023-05-02T01:54:22;100524.69;;;11.00;100.00
46836;BME280;32573;51.290;6.926;2023-05-02T01:56:51;100524.75;;;11.02;100.00
46836;BME280;32573;51.290;6.926;2023-05-02T01:59:22;100535.16;;;11.00;100.00
46836;BME280;32573;51.290;6.926;2023-05-02T02:01:53;100536.88;;;11.00;100.00
46836;BME280;32573;51.290;6.926;2023-05-02T02:04:24;100535.16;;;11.00;100.00
46836;BME280;32573;51.290;6.926;2023-05-02T02:06:57;100542.09;;;10.98;100.00
46836;BME280;32573;51.290;6.926;2023-05-02T02:09:28;100538.63;;;10.99;100.00
46836;BME280;32573;51.290;6.926;2023-05-02T02:12:05;100540.38;;;10.99;100.00
46836;BME280;32573;51.290;6.926;2023-05-02T02:14:36;100538.63;;;10.99;100.00
46836;BME280;32573;51.290;6.926;2023-05-02T02:17:22;100533.38;;;10.99;100.00
46836;BME280;32573;51.290;6.926;2023-05-02T02:19:54;100542.09;;;10.98;100.00
46836;BME280;32573;51.290;6.926;2023-05-02T02:22:26;100543.88;;;10.99;100.00
46836;BME280;32573;51.290;6.926;2023-05-02T02:24:56;100547.44;;;11.01;100.00
46836;BME280;32573;51.290;6.926;2023-05-02T02:27:26;100546.56;;;11.02;100.00
46836;BME280;32573;51.290;6.926;2023-05-02T02:29:56;100546.56;;;11.02;100.00
46836;BME280;32573;51.290;6.926;2023-05-02T02:32:26;100551.88;;;11.04;100.00
46836;BME280;32573;51.290;6.926;2023-05-02T02:34:55;100552.75;;;11.05;100.00
46836;BME280;32573;51.290;6.926;2023-05-02T02:37:29;100549.28;;;11.06;100.00
46836;BME280;32573;51.290;6.926;2023-05-02T02:40:03;100546.66;;;11.06;100.00
46836;BME280;32573;51.290;6.926;2023-05-02T02:42:38;100551.91;;;11.06;100.00
46836;BME280;32573;51.290;6.926;2023-05-02T02:45:17;100553.72;;;11.08;100.00
46836;BME280;32573;51.290;6.926;2023-05-02T02:47:52;100556.41;;;11.10;100.00
46836;BME280;32573;51.290;6.926;2023-05-02T02:50:29;100562.59;;;11.12;100.00
46836;BME280;32573;51.290;6.926;2023-05-02T02:53:02;100571.41;;;11.14;100.00
46836;BME280;32573;51.290;6.926;2023-05-02T02:55:37;100570.53;;;11.15;100.00
46836;BME280;32573;51.290;6.926;2023-05-02T02:58:18;100571.50;;;11.17;100.00
46836;BME280;32573;51.290;6.926;2023-05-02T03:00:49;100570.63;;;11.18;100.00
46836;BME280;32573;51.290;6.926;2023-05-02T03:03:19;100568.97;;;11.20;100.00
46836;BME280;32573;51.290;6.926;2023-05-02T03:05:51;100571.66;;;11.21;100.00
46836;BME280;32573;51.290;6.926;2023-05-02T03:08:20;100577.81;;;11.23;100.00
46836;BME280;32573;51.290;6.926;2023-05-02T03:10:51;100587.47;;;11.25;100.00
46836;BME280;32573;51.290;6.926;2023-05-02T03:13:21;100584.91;;;11.26;100.00
46836;BME280;32573;51.290;6.926;2023-05-02T03:16:17;100580.53;;;11.27;100.00
46836;BME280;32573;51.290;6.926;2023-05-02T03:18:50;100574.41;;;11.26;100.00
46836;BME280;32573;51.290;6.926;2023-05-02T03:21:19;100588.44;;;11.28;100.00
46836;BME280;32573;51.290;6.926;2023-05-02T03:23:48;100588.44;;;11.28;100.00
46836;BME280;32573;51.290;6.926;2023-05-02T03:26:17;100591.03;;;11.27;100.00
46836;BME280;32573;51.290;6.926;2023-05-02T03:28:45;100603.25;;;11.26;100.00
46836;BME280;32573;51.290;6.926;2023-05-02T03:31:21;100604.13;;;11.27;100.00
46836;BME280;32573;51.290;6.926;2023-05-02T03:33:52;100596.19;;;11.25;100.00
46836;BME280;32573;51.290;6.926;2023-05-02T03:36:22;100604.06;;;11.25;100.00
46836;BME280;32573;51.290;6.926;2023-05-02T03:38:53;100597.88;;;11.23;100.00
46836;BME280;32573;51.290;6.926;2023-05-02T03:41:23;100602.28;;;11.24;100.00
46836;BME280;32573;51.290;6.926;2023-05-02T03:43:59;100602.22;;;11.22;100.00
46836;BME280;32573;51.290;6.926;2023-05-02T03:46:29;100599.63;;;11.22;100.00
46836;BME280;32573;51.290;6.926;2023-05-02T03:48:58;100600.50;;;11.23;100.00
46836;BME280;32573;51.290;6.926;2023-05-02T03:51:27;100610.16;;;11.24;100.00
46836;BME280;32573;51.290;6.926;2023-05-02T03:53:56;100607.63;;;11.27;100.00
46836;BME280;32573;51.290;6.926;2023-05-02T03:56:25;100602.44;;;11.29;100.00
46836;BME280;32573;51.290;6.926;2023-05-02T03:59:06;100598.91;;;11.28;100.00
46836;BME280;32573;51.290;6.926;2023-05-02T04:01:35;100601.53;;;11.28;100.00
46836;BME280;32573;51.290;6.926;2023-05-02T04:04:06;100614.63;;;11.28;100.00
46836;BME280;32573;51.290;6.926;2023-05-02T04:06:44;100611.19;;;11.29;100.00
46836;BME280;32573;51.290;6.926;2023-05-02T04:09:13;100611.19;;;11.29;100.00
46836;BME280;32573;51.290;6.926;2023-05-02T04:11:49;100611.19;;;11.29;100.00
46836;BME280;32573;51.290;6.926;2023-05-02T04:14:18;100619.06;;;11.29;100.00
46836;BME280;32573;51.290;6.926;2023-05-02T04:16:50;100618.19;;;11.30;100.00
46836;BME280;32573;51.290;6.926;2023-05-02T04:19:26;100623.44;;;11.30;100.00
46836;BME280;32573;51.290;6.926;2023-05-02T04:21:55;100625.25;;;11.31;100.00
46836;BME280;32573;51.290;6.926;2023-05-02T04:24:23;100629.59;;;11.31;100.00
46836;BME280;32573;51.290;6.926;2023-05-02T04:26:52;100634.84;;;11.31;100.00
46836;BME280;32573;51.290;6.926;2023-05-02T04:29:21;100635.72;;;11.31;100.00
46836;BME280;32573;51.290;6.926;2023-05-02T04:31:51;100638.28;;;11.30;100.00
46836;BME280;32573;51.290;6.926;2023-05-02T04:34:23;100641.75;;;11.29;100.00
46836;BME280;32573;51.290;6.926;2023-05-02T04:36:51;100648.75;;;11.30;100.00
46836;BME280;32573;51.290;6.926;2023-05-02T04:39:22;100644.31;;;11.27;100.00
46836;BME280;32573;51.290;6.926;2023-05-02T04:41:59;100652.19;;;11.27;100.00
46836;BME280;32573;51.290;6.926;2023-05-02T04:44:31;100645.19;;;11.28;100.00
46836;BME280;32573;51.290;6.926;2023-05-02T04:47:01;100654.78;;;11.27;100.00
46836;BME280;32573;51.290;6.926;2023-05-02T04:49:31;100666.13;;;11.26;100.00
46836;BME280;32573;51.290;6.926;2023-05-02T04:52:00;100669.63;;;11.27;100.00
46836;BME280;32573;51.290;6.926;2023-05-02T04:54:28;100675.75;;;11.27;100.00
46836;BME280;32573;51.290;6.926;2023-05-02T04:56:57;100679.22;;;11.26;100.00
46836;BME280;32573;51.290;6.926;2023-05-02T04:59:26;100678.31;;;11.26;100.00
46836;BME280;32573;51.290;6.926;2023-05-02T05:01:54;100693.16;;;11.25;100.00
46836;BME280;32573;51.290;6.926;2023-05-02T05:04:24;100688.69;;;11.22;100.00
46836;BME280;32573;51.290;6.926;2023-05-02T05:06:53;100701.78;;;11.21;100.00
46836;BME280;32573;51.290;6.926;2023-05-02T05:09:23;100704.25;;;11.18;100.00
46836;BME280;32573;51.290;6.926;2023-05-02T05:11:52;100703.34;;;11.16;100.00
46836;BME280;32573;51.290;6.926;2023-05-02T05:14:21;100700.56;;;11.11;100.00
46836;BME280;32573;51.290;6.926;2023-05-02T05:16:53;100704.78;;;11.08;100.00
46836;BME280;32573;51.290;6.926;2023-05-02T05:19:22;100708.25;;;11.07;100.00
46836;BME280;32573;51.290;6.926;2023-05-02T05:21:53;100710.81;;;11.05;100.00
46836;BME280;32573;51.290;6.926;2023-05-02T05:24:22;100709.88;;;11.03;100.00
46836;BME280;32573;51.290;6.926;2023-05-02T05:26:53;100708.09;;;11.02;100.00
46836;BME280;32573;51.290;6.926;2023-05-02T05:29:22;100718.50;;;11.00;100.00
46836;BME280;32573;51.290;6.926;2023-05-02T05:31:50;100722.88;;;11.00;100.00
46836;BME280;32573;51.290;6.926;2023-05-02T05:34:20;100720.22;;;10.98;100.00
46836;BME280;32573;51.290;6.926;2023-05-02T05:36:50;100722.75;;;10.97;100.00
46836;BME280;32573;51.290;6.926;2023-05-02T05:39:22;100727.13;;;10.96;100.00
46836;BME280;32573;51.290;6.926;2023-05-02T05:41:53;100727.13;;;10.96;100.00
46836;BME280;32573;51.290;6.926;2023-05-02T05:44:23;100732.34;;;10.96;100.00
46836;BME280;32573;51.290;6.926;2023-05-02T05:46:52;100743.72;;;10.97;100.00
46836;BME280;32573;51.290;6.926;2023-05-02T05:49:22;100741.03;;;10.95;100.00
46836;BME280;32573;51.290;6.926;2023-05-02T05:51:52;100754.13;;;10.95;100.00
46836;BME280;32573;51.290;6.926;2023-05-02T05:54:22;100748.84;;;10.94;100.00
46836;BME280;32573;51.290;6.926;2023-05-02T05:56:50;100755.94;;;10.96;100.00
46836;BME280;32573;51.290;6.926;2023-05-02T05:59:20;100754.13;;;10.95;100.00
46836;BME280;32573;51.290;6.926;2023-05-02T06:01:48;100761.09;;;10.95;100.00
46836;BME280;32573;51.290;6.926;2023-05-02T06:04:20;100757.59;;;10.94;100.00
46836;BME280;32573;51.290;6.926;2023-05-02T06:06:51;100761.88;;;10.92;100.00
46836;BME280;32573;51.290;6.926;2023-05-02T06:09:22;100763.69;;;10.93;100.00
46836;BME280;32573;51.290;6.926;2023-05-02T06:11:50;100769.75;;;10.92;100.00
46836;BME280;32573;51.290;6.926;2023-05-02T06:14:19;100774.03;;;10.90;100.00
46836;BME280;32573;51.290;6.926;2023-05-02T06:16:49;100773.13;;;10.90;100.00
46836;BME280;32573;51.290;6.926;2023-05-02T06:19:17;100785.34;;;10.89;100.00
46836;BME280;32573;51.290;6.926;2023-05-02T06:21:46;100788.78;;;10.88;100.00
46836;BME280;32573;51.290;6.926;2023-05-02T06:24:14;100798.44;;;10.89;100.00
46836;BME280;32573;51.290;6.926;2023-05-02T06:26:44;100796.72;;;10.90;100.00
46836;BME280;32573;51.290;6.926;2023-05-02T06:29:13;100801.00;;;10.88;100.00
46836;BME280;32573;51.290;6.926;2023-05-02T06:31:41;100801.00;;;10.88;100.00
46836;BME280;32573;51.290;6.926;2023-05-02T06:34:10;100809.81;;;10.90;100.00
46836;BME280;32573;51.290;6.926;2023-05-02T06:36:38;100812.50;;;10.91;100.00
46836;BME280;32573;51.290;6.926;2023-05-02T06:39:07;100816.00;;;10.92;100.00
46836;BME280;32573;51.290;6.926;2023-05-02T06:41:35;100823.06;;;10.94;100.00
46836;BME280;32573;51.290;6.926;2023-05-02T06:44:05;100825.81;;;10.97;100.00
46836;BME280;32573;51.290;6.926;2023-05-02T06:46:34;100826.75;;;10.99;100.00
46836;BME280;32573;51.290;6.926;2023-05-02T06:49:02;100835.59;;;11.03;100.00
46836;BME280;32573;51.290;6.926;2023-05-02T06:51:31;100834.81;;;11.06;100.00
46836;BME280;32573;51.290;6.926;2023-05-02T06:54:00;100842.75;;;11.07;100.00
46836;BME280;32573;51.290;6.926;2023-05-02T06:56:28;100841.09;;;11.09;100.00
46836;BME280;32573;51.290;6.926;2023-05-02T06:58:57;100844.59;;;11.10;100.00
46836;BME280;32573;51.290;6.926;2023-05-02T07:01:28;100844.69;;;11.13;100.00
46836;BME280;32573;51.290;6.926;2023-05-02T07:03:56;100850.06;;;11.16;100.00
46836;BME280;32573;51.290;6.926;2023-05-02T07:06:25;100853.63;;;11.18;100.00
46836;BME280;32573;51.290;6.926;2023-05-02T07:08:55;100857.19;;;11.20;100.00
46836;BME280;32573;51.290;6.926;2023-05-02T07:11:23;100862.53;;;11.23;100.00
46836;BME280;32573;51.290;6.926;2023-05-02T07:13:53;100861.72;;;11.24;100.00
46836;BME280;32573;51.290;6.926;2023-05-02T07:16:22;100867.91;;;11.26;100.00
46836;BME280;32573;51.290;6.926;2023-05-02T07:18:52;100866.19;;;11.27;100.00
46836;BME280;32573;51.290;6.926;2023-05-02T07:21:20;100866.22;;;11.28;100.00
46836;BME280;32573;51.290;6.926;2023-05-02T07:23:49;100869.78;;;11.30;100.00
46836;BME280;32573;51.290;6.926;2023-05-02T07:26:17;100873.38;;;11.32;100.00
46836;BME280;32573;51.290;6.926;2023-05-02T07:28:46;100872.53;;;11.33;100.00
46836;BME280;32573;51.290;6.926;2023-05-02T07:31:14;100882.19;;;11.34;100.00
46836;BME280;32573;51.290;6.926;2023-05-02T07:33:45;100886.53;;;11.34;100.00
46836;BME280;32573;51.290;6.926;2023-05-02T07:36:15;100888.28;;;11.33;100.00
46836;BME280;32573;51.290;6.926;2023-05-02T07:38:44;100889.16;;;11.34;100.00
46836;BME280;32573;51.290;6.926;2023-05-02T07:41:12;100900.47;;;11.33;100.00
46836;BME280;32573;51.290;6.926;2023-05-02T07:43:41;100903.84;;;11.30;100.00
46836;BME280;32573;51.290;6.926;2023-05-02T07:46:12;100907.22;;;11.26;100.00
46836;BME280;32573;51.290;6.926;2023-05-02T07:48:41;100907.09;;;11.23;100.00
46836;BME280;32573;51.290;6.926;2023-05-02T07:51:10;100913.19;;;11.22;100.00
46836;BME280;32573;51.290;6.926;2023-05-02T07:53:40;100922.69;;;11.20;100.00
46836;BME280;32573;51.290;6.926;2023-05-02T07:56:09;100920.03;;;11.18;100.00
46836;BME280;32573;51.290;6.926;2023-05-02T07:58:39;100930.44;;;11.17;100.00
46836;BME280;32573;51.290;6.926;2023-05-02T08:01:08;100930.44;;;11.17;100.00
46836;BME280;32573;51.290;6.926;2023-05-02T08:03:38;100932.13;;;11.15;100.00
46836;BME280;32573;51.290;6.926;2023-05-02T08:06:07;100940.94;;;11.17;100.00
46836;BME280;32573;51.290;6.926;2023-05-02T08:08:36;100943.44;;;11.14;100.00
46836;BME280;32573;51.290;6.926;2023-05-02T08:11:07;100937.25;;;11.12;100.00
46836;BME280;32573;51.290;6.926;2023-05-02T08:13:35;100941.59;;;11.11;100.00
46836;BME280;32573;51.290;6.926;2023-05-02T08:16:05;100944.22;;;11.11;100.00
46836;BME280;32573;51.290;6.926;2023-05-02T08:18:37;100945.97;;;11.11;100.00
46836;BME280;32573;51.290;6.926;2023-05-02T08:21:07;100943.34;;;11.11;100.00
46836;BME280;32573;51.290;6.926;2023-05-02T08:23:36;100956.38;;;11.09;100.00
46836;BME280;32573;51.290;6.926;2023-05-02T08:26:05;100958.91;;;11.08;100.00
46836;BME280;32573;51.290;6.926;2023-05-02T08:28:37;100963.25;;;11.07;100.00
46836;BME280;32573;51.290;6.926;2023-05-02T08:31:06;100963.25;;;11.07;100.00
46836;BME280;32573;51.290;6.926;2023-05-02T08:33:36;100965.09;;;11.10;100.00
46836;BME280;32573;51.290;6.926;2023-05-02T08:36:09;100971.25;;;11.10;100.00
46836;BME280;32573;51.290;6.926;2023-05-02T08:38:39;100972.19;;;11.12;100.00
46836;BME280;32573;51.290;6.926;2023-05-02T08:41:33;100976.72;;;11.16;100.00
46836;BME280;32573;51.290;6.926;2023-05-02T08:44:05;100977.69;;;11.18;100.00
46836;BME280;32573;51.290;6.926;2023-05-02T08:46:35;100989.16;;;11.22;100.00
46836;BME280;32573;51.290;6.926;2023-05-02T08:49:04;100990.13;;;11.24;100.00
46836;BME280;32573;51.290;6.926;2023-05-02T08:51:34;100986.72;;;11.27;100.00
46836;BME280;32573;51.290;6.926;2023-05-02T08:54:05;100988.50;;;11.28;100.00
46836;BME280;32573;51.290;6.926;2023-05-02T08:56:36;100995.59;;;11.30;100.00
46836;BME280;32573;51.290;6.926;2023-05-02T08:59:07;100996.63;;;11.34;100.00
46836;BME280;32573;51.290;6.926;2023-05-02T09:01:36;100988.88;;;11.37;100.00
46836;BME280;32573;51.290;6.926;2023-05-02T09:04:08;101002.06;;;11.40;100.00
46836;BME280;32573;51.290;6.926;2023-05-02T09:06:38;101013.44;;;11.40;100.00
46836;BME280;32573;51.290;6.926;2023-05-02T09:09:07;101021.31;;;11.40;100.00
46836;BME280;32573;51.290;6.926;2023-05-02T09:11:36;101022.16;;;11.39;100.00
46836;BME280;32573;51.290;6.926;2023-05-02T09:14:13;101022.06;;;11.36;100.00
46836;BME280;32573;51.290;6.926;2023-05-02T09:16:42;101027.28;;;11.36;100.00
46836;BME280;32573;51.290;6.926;2023-05-02T09:19:22;101037.66;;;11.33;100.00
46836;BME280;32573;51.290;6.926;2023-05-02T09:21:58;101040.16;;;11.30;100.00
46836;BME280;32573;51.290;6.926;2023-05-02T09:24:27;101038.28;;;11.28;100.00
46836;BME280;32573;51.290;6.926;2023-05-02T09:26:58;101039.19;;;11.28;100.00
46836;BME280;32573;51.290;6.926;2023-05-02T09:29:30;101044.44;;;11.28;100.00
46836;BME280;32573;51.290;6.926;2023-05-02T09:32:03;101044.44;;;11.28;100.00
46836;BME280;32573;51.290;6.926;2023-05-02T09:34:35;101046.22;;;11.29;100.00
46836;BME280;32573;51.290;6.926;2023-05-02T09:37:05;101052.63;;;11.36;100.00
46836;BME280;32573;51.290;6.926;2023-05-02T09:39:34;101058.00;;;11.40;100.00
46836;BME280;32573;51.290;6.926;2023-05-02T09:42:03;101052.91;;;11.43;100.00
46836;BME280;32573;51.290;6.926;2023-05-02T09:44:37;101052.19;;;11.48;100.00
46836;BME280;32573;51.290;6.926;2023-05-02T09:47:06;101061.00;;;11.50;100.00
46836;BME280;32573;51.290;6.926;2023-05-02T09:49:39;101065.66;;;11.57;100.00
46836;BME280;32573;51.290;6.926;2023-05-02T09:52:10;101068.63;;;11.66;100.00
46836;BME280;32573;51.290;6.926;2023-05-02T09:54:38;101070.66;;;11.73;100.00
46836;BME280;32573;51.290;6.926;2023-05-02T09:57:07;101076.22;;;11.82;100.00
46836;BME280;32573;51.290;6.926;2023-05-02T09:59:39;101071.09;;;11.85;100.00
46836;BME280;32573;51.290;6.926;2023-05-02T10:02:08;101070.34;;;11.88;100.00
46836;BME280;32573;51.290;6.926;2023-05-02T10:04:39;101073.16;;;11.93;100.00
46836;BME280;32573;51.290;6.926;2023-05-02T10:07:09;101072.44;;;11.97;100.00
46836;BME280;32573;51.290;6.926;2023-05-02T10:09:42;101079.63;;;12.02;100.00
46836;BME280;32573;51.290;6.926;2023-05-02T10:12:14;101069.31;;;12.07;100.00
46836;BME280;32573;51.290;6.926;2023-05-02T10:14:48;101083.56;;;12.14;100.00
46836;BME280;32573;51.290;6.926;2023-05-02T10:17:21;101079.25;;;12.16;100.00
46836;BME280;32573;51.290;6.926;2023-05-02T10:19:56;101079.19;;;12.14;100.00
46836;BME280;32573;51.290;6.926;2023-05-02T10:22:28;101083.50;;;12.12;100.00
46836;BME280;32573;51.290;6.926;2023-05-02T10:24:59;101081.09;;;12.18;100.00
46836;BME280;32573;51.290;6.926;2023-05-02T10:27:29;101091.81;;;12.24;100.00
46836;BME280;32573;51.290;6.926;2023-05-02T10:30:00;101086.63;;;12.26;100.00
46836;BME280;32573;51.290;6.926;2023-05-02T10:32:32;101087.63;;;12.29;100.00
46836;BME280;32573;51.290;6.926;2023-05-02T10:35:03;101079.97;;;12.36;100.00
46836;BME280;32573;51.290;6.926;2023-05-02T10:37:33;101086.31;;;12.42;100.00
46836;BME280;32573;51.290;6.926;2023-05-02T10:40:05;101081.13;;;12.44;100.00
46836;BME280;32573;51.290;6.926;2023-05-02T10:42:38;101083.06;;;12.49;100.00
46836;BME280;32573;51.290;6.926;2023-05-02T10:45:11;101091.13;;;12.54;100.00
46836;BME280;32573;51.290;6.926;2023-05-02T10:47:40;101077.13;;;12.55;100.00
46836;BME280;32573;51.290;6.926;2023-05-02T10:50:09;101082.50;;;12.58;100.00
46836;BME280;32573;51.290;6.926;2023-05-02T10:52:38;101076.56;;;12.64;100.00
46836;BME280;32573;51.290;6.926;2023-05-02T10:55:16;101074.03;;;12.67;100.00
46836;BME280;32573;51.290;6.926;2023-05-02T10:58:21;101074.09;;;12.68;100.00
46836;BME280;32573;51.290;6.926;2023-05-02T11:00:51;101075.00;;;12.69;100.00
46836;BME280;32573;51.290;6.926;2023-05-02T11:03:52;101083.66;;;12.66;100.00
46836;BME280;32573;51.290;6.926;2023-05-02T11:06:21;101094.00;;;12.62;100.00
46836;BME280;32573;51.290;6.926;2023-05-02T11:08:50;101090.44;;;12.60;100.00
46836;BME280;32573;51.290;6.926;2023-05-02T11:11:38;101094.69;;;12.56;100.00
46836;BME280;32573;51.290;6.926;2023-05-02T11:14:08;101094.59;;;12.53;100.00
46836;BME280;32573;51.290;6.926;2023-05-02T11:17:06;101102.25;;;12.47;100.00
46836;BME280;32573;51.290;6.926;2023-05-02T11:22:56;101108.00;;;12.37;100.00
46836;BME280;32573;51.290;6.926;2023-05-02T11:25:43;101112.28;;;12.33;100.00
46836;BME280;32573;51.290;6.926;2023-05-02T11:28:42;101115.53;;;12.27;100.00
46836;BME280;32573;51.290;6.926;2023-05-02T11:34:42;101112.81;;;12.24;100.00
46836;BME280;32573;51.290;6.926;2023-05-02T11:37:12;101114.72;;;12.28;100.00
46836;BME280;32573;51.290;6.926;2023-05-02T11:39:41;101111.34;;;12.33;100.00
46836;BME280;32573;51.290;6.926;2023-05-02T11:42:10;101111.47;;;12.36;100.00
46836;BME280;32573;51.290;6.926;2023-05-02T11:44:55;101110.81;;;12.41;100.00
46836;BME280;32573;51.290;6.926;2023-05-02T11:47:27;101116.16;;;12.44;100.00
46836;BME280;32573;51.290;6.926;2023-05-02T11:50:03;101112.56;;;12.42;100.00
46836;BME280;32573;51.290;6.926;2023-05-02T11:52:36;101111.69;;;12.42;100.00
46836;BME280;32573;51.290;6.926;2023-05-02T11:55:07;101114.47;;;12.46;100.00
46836;BME280;32573;51.290;6.926;2023-05-02T11:57:38;101117.38;;;12.54;100.00
46836;BME280;32573;51.290;6.926;2023-05-02T12:00:07;101112.56;;;12.66;100.00
46836;BME280;32573;51.290;6.926;2023-05-02T12:02:40;101113.06;;;12.82;100.00
46836;BME280;32573;51.290;6.926;2023-05-02T12:05:11;101111.81;;;12.96;100.00
46836;BME280;32573;51.290;6.926;2023-05-02T12:07:41;101118.38;;;13.09;100.00
46836;BME280;32573;51.290;6.926;2023-05-02T12:10:12;101117.91;;;13.21;100.00
46836;BME280;32573;51.290;6.926;2023-05-02T12:12:42;101122.63;;;13.31;100.00
46836;BME280;32573;51.290;6.926;2023-05-02T12:15:11;101126.47;;;13.41;100.00
46836;BME280;32573;51.290;6.926;2023-05-02T12:17:42;101120.66;;;13.52;100.00
46836;BME280;32573;51.290;6.926;2023-05-02T12:20:13;101124.53;;;13.64;100.00
46836;BME280;32573;51.290;6.926;2023-05-02T12:22:42;101130.88;;;13.70;100.00
46836;BME280;32573;51.290;6.926;2023-05-02T12:25:11;101132.03;;;13.80;100.00
46836;BME280;32573;51.290;6.926;2023-05-02T12:27:40;101132.25;;;13.86;100.00
46836;BME280;32573;51.290;6.926;2023-05-02T12:30:24;101125.38;;;13.91;100.00
46836;BME280;32573;51.290;6.926;2023-05-02T12:32:55;101126.31;;;13.93;100.00
46836;BME280;32573;51.290;6.926;2023-05-02T12:35:27;101123.78;;;13.96;100.00
46836;BME280;32573;51.290;6.926;2023-05-02T12:38:08;101133.66;;;14.05;100.00
46836;BME280;32573;51.290;6.926;2023-05-02T12:40:38;101139.41;;;14.20;100.00
46836;BME280;32573;51.290;6.926;2023-05-02T12:43:07;101139.88;;;14.37;100.00
46836;BME280;32573;51.290;6.926;2023-05-02T12:45:36;101138.38;;;14.47;100.00
46836;BME280;32573;51.290;6.926;2023-05-02T12:48:22;101148.22;;;14.53;100.00
46836;BME280;32573;51.290;6.926;2023-05-02T12:50:54;101142.19;;;14.55;100.00
46836;BME280;32573;51.290;6.926;2023-05-02T12:53:39;101154.56;;;14.59;100.00
46836;BME280;32573;51.290;6.926;2023-05-02T12:56:08;101143.22;;;14.62;100.00
46836;BME280;32573;51.290;6.926;2023-05-02T12:58:41;101152.22;;;14.70;100.00
46836;BME280;32573;51.290;6.926;2023-05-02T13:01:10;101162.22;;;14.82;100.00
46836;BME280;32573;51.290;6.926;2023-05-02T13:03:40;101161.59;;;14.91;100.00
46836;BME280;32573;51.290;6.926;2023-05-02T13:06:10;101161.81;;;15.00;100.00
46836;BME280;32573;51.290;6.926;2023-05-02T13:08:39;101166.25;;;15.02;100.00